Pays
Station

 

Conditions  météo  pour  Puerto Escondido  -  Mexique    Mexique

  
29 °C
    
 
 

METAR pour Puerto Escondido :

MMPS 232145Z 24010KT 10SM SKC 29/23 A2988 RMK HZY

 

Voici le bulletin pour Puerto Escondido - Mexique.
 
Le bulletin a été fait il y a 35 minutes, à 21:45 UTC .
Le vent soufflait à la vitesse de 5.1 mètres par seconde de Ouest/Sud-ouest (240°).
 
La température était de 29 °C, avec un point de rosée à 23 °C.
La température ressentie était de 33 °C.
 
La pression atmosphérique était de 1012 hPa.
L'humidité relative était de 70.1%.
 
Le ciel était clair.
 
La visibilité globale était de 16.1 kilomètres.
 

 
 
 

Pays :   A   B   C   D   E   F   G   H   I   J   K   L   M   N   O   P   Q   R   S   T   U   V   W   Y   Z

 

Partenaires :  Info Météo avec Met'info
Météo Marine avec MeteoMarine.net
Infos Site  |  Infos Légales  |  Crédits  |  Confidentialité
Contactez-nous  |  Ajouter aux favoris
© 2013-2019 METAR - Tous droits réservés